メインページ
METAR-TAF:

METAR-TAF

空港 :

Williams Lake, ブリティッシュコロンビア州, カナダ

緯度: 52-11N, 経度: 122-03W, 海抜: 940m

現時点の気象観測

当レポートは28分前の10:00(UTC)に作成
東/南東の風 8kt
気温 15°C
湿度 67%
気圧 1013 hPa
視程: 24.1km
高度23000ftの雲はほとんどない

METAR: CYWL 051000Z 11008KT 15SM FEW230 15/09 A2992 RMK CI1 SLP129 DENSITY ALT 3800FT

時間: 03:28 (10:28 UTC)

予報

当レポートは3時間50分前の06:38(UTC)に作成
予報は05日の 07時(UTC)から 05日の 19時(UTC)まで有効
変向風 3kt
視程: 10km
晴天

TAF: CYWL 050638Z 0507/0519 VRB03KT P6SM SKC RMK NXT FCST BY 051300Z

4,000以上の空港の気象観測と天気予報(METAR報とTAF報)

利用可能な観測所は地図上に黄色い丸と赤い丸で示す。

丸の上にカーソルを重ねると観測所名を参照できる。

次にクリックすると気象観測と天気予報を参照できる。

マップの切り替え:黒色「×」印の緑ボタンをクリックして拡大、「-」印の緑ボタンをクリックして縮小、緑色の三角印をクリックして隣りの地図に切り替え


METAR-TAF: